createdAt,value
2023-02-12T00:01:21.496Z,85.65
2023-02-12T00:06:53.244Z,85.89
2023-02-12T00:12:26.453Z,86.0
2023-02-12T00:18:01.460Z,85.98
2023-02-12T00:23:33.046Z,87.15
2023-02-12T00:29:04.569Z,87.04
2023-02-12T00:34:36.302Z,86.83
2023-02-12T00:40:08.007Z,87.57
2023-02-12T00:45:39.817Z,86.74
2023-02-12T00:51:11.643Z,86.76
2023-02-12T00:56:43.473Z,86.44
2023-02-12T01:02:15.998Z,87.18
2023-02-12T01:07:46.680Z,86.89
2023-02-12T01:13:18.470Z,87.04
2023-02-12T01:18:56.848Z,86.84
2023-02-12T01:24:26.653Z,86.66
2023-02-12T01:29:58.035Z,87.45
2023-02-12T01:35:29.761Z,87.74
2023-02-12T01:41:01.307Z,87.89
2023-02-12T01:46:33.401Z,87.53
2023-02-12T01:52:04.970Z,88.2
2023-02-12T01:57:36.683Z,87.4
2023-02-12T02:03:08.381Z,89.68
2023-02-12T02:08:39.898Z,87.68
2023-02-12T02:14:11.989Z,88.29
2023-02-12T02:19:50.496Z,87.17
2023-02-12T02:25:21.924Z,87.39
2023-02-12T02:30:53.276Z,87.37
2023-02-12T02:36:26.437Z,86.87
2023-02-12T02:41:56.724Z,87.47
2023-02-12T02:47:28.449Z,87.97
2023-02-12T02:53:00.143Z,87.31
2023-02-12T02:58:31.887Z,87.91
2023-02-12T03:04:03.606Z,87.08
2023-02-12T03:09:35.352Z,86.63
2023-02-12T03:15:07.372Z,88.19
2023-02-12T03:20:43.241Z,88.16
2023-02-12T03:26:14.993Z,88.7
2023-02-12T03:31:48.013Z,88.69
2023-02-12T03:37:18.442Z,87.88
2023-02-12T03:42:50.210Z,87.35
2023-02-12T03:48:21.952Z,88.43
2023-02-12T03:53:53.694Z,88.9
2023-02-12T03:59:25.421Z,88.37
2023-02-12T04:04:57.105Z,88.23
2023-02-12T04:10:28.792Z,88.49
2023-02-12T04:16:00.728Z,89.39
2023-02-12T04:21:38.684Z,89.63
2023-02-12T04:27:10.347Z,89.83
2023-02-12T04:32:42.110Z,89.85
2023-02-12T04:38:13.791Z,90.49
2023-02-12T04:43:45.520Z,91.4
2023-02-12T04:49:18.217Z,92.62
2023-02-12T04:54:48.857Z,91.87
2023-02-12T05:00:20.617Z,92.15
2023-02-12T05:05:52.374Z,93.2
2023-02-12T05:11:24.066Z,93.0
2023-02-12T05:16:55.827Z,92.36
2023-02-12T05:22:34.549Z,91.75
2023-02-12T05:28:05.728Z,91.95
2023-02-12T05:33:37.378Z,91.15
2023-02-12T05:39:09.111Z,90.95
2023-02-12T05:44:40.963Z,90.49
2023-02-12T05:50:12.651Z,91.55
2023-02-12T05:55:44.385Z,91.66
2023-02-12T06:01:16.193Z,90.7
2023-02-12T06:06:47.796Z,90.77
2023-02-12T06:12:19.540Z,90.38
2023-02-12T06:17:51.156Z,90.18
2023-02-12T06:23:27.932Z,90.38
2023-02-12T06:28:59.105Z,90.27
2023-02-12T06:34:31.169Z,90.15
2023-02-12T06:40:03.336Z,90.63
2023-02-12T06:45:34.804Z,90.7
2023-02-12T06:51:06.138Z,91.02
2023-02-12T06:56:37.626Z,91.51
2023-02-12T07:02:10.471Z,91.25
2023-02-12T07:07:41.290Z,90.65
2023-02-12T07:13:12.854Z,90.61
2023-02-12T07:18:44.754Z,89.82
2023-02-12T07:24:20.840Z,90.29
2023-02-12T07:29:52.449Z,90.33
2023-02-12T07:35:24.296Z,90.06
2023-02-12T07:40:55.947Z,90.65
2023-02-12T07:46:27.649Z,90.2
2023-02-12T07:51:59.374Z,90.25
2023-02-12T07:57:31.375Z,90.71
2023-02-12T08:03:02.993Z,90.8
2023-02-12T08:08:35.207Z,90.83
2023-02-12T08:14:06.780Z,91.01
2023-02-12T08:19:38.295Z,91.09
2023-02-12T08:25:16.456Z,90.65
2023-02-12T08:30:48.245Z,89.75
2023-02-12T08:36:19.894Z,89.83
2023-02-12T08:41:51.805Z,89.91
2023-02-12T08:47:23.469Z,89.86
2023-02-12T08:52:55.123Z,90.71
2023-02-12T08:58:26.744Z,90.55
2023-02-12T09:03:58.475Z,90.57
2023-02-12T09:09:30.203Z,90.22
2023-02-12T09:15:03.291Z,90.2
2023-02-12T09:20:33.726Z,90.74
2023-02-12T09:26:11.769Z,91.86
2023-02-12T09:31:43.712Z,91.83
2023-02-12T09:37:15.517Z,91.57
2023-02-12T09:42:46.905Z,91.5
2023-02-12T09:48:18.632Z,92.06
2023-02-12T09:53:50.314Z,92.66
2023-02-12T09:59:22.029Z,92.34
2023-02-12T10:05:02.399Z,93.53
2023-02-12T10:10:25.546Z,93.77
2023-02-12T10:15:58.061Z,93.69
2023-02-12T10:21:28.980Z,94.26
2023-02-12T10:27:05.592Z,93.88
2023-02-12T10:32:36.830Z,93.67
2023-02-12T10:38:08.457Z,93.22
2023-02-12T10:43:40.352Z,92.58
2023-02-12T10:49:12.198Z,93.63
2023-02-12T10:54:43.869Z,92.95
2023-02-12T11:00:15.623Z,92.18
2023-02-12T11:05:47.482Z,91.26
2023-02-12T11:11:19.190Z,92.78
2023-02-12T11:16:50.815Z,91.95
2023-02-12T11:22:22.692Z,91.88
2023-02-12T11:28:00.851Z,91.32
2023-02-12T11:33:33.849Z,91.28
2023-02-12T11:39:04.113Z,91.42
2023-02-12T11:44:35.845Z,91.14
2023-02-12T11:50:07.607Z,90.75
2023-02-12T11:55:39.811Z,90.18
2023-02-12T12:01:11.067Z,90.69
2023-02-12T12:06:42.737Z,90.28
2023-02-12T12:12:14.568Z,88.94
2023-02-12T12:17:46.167Z,90.03
2023-02-12T12:23:18.375Z,90.13
2023-02-12T12:28:56.167Z,89.79
2023-02-12T12:34:27.745Z,88.63
2023-02-12T12:39:59.351Z,88.82
2023-02-12T12:45:31.389Z,88.37
2023-02-12T12:51:03.054Z,88.1
2023-02-12T12:56:34.699Z,86.93
2023-02-12T13:02:06.810Z,87.31
2023-02-12T13:07:38.398Z,87.43
2023-02-12T13:13:10.152Z,86.76
2023-02-12T13:18:41.785Z,86.49
2023-02-12T13:24:13.581Z,86.24
2023-02-12T13:29:52.066Z,87.0
2023-02-12T13:35:23.428Z,87.11
2023-02-12T13:40:55.188Z,86.65
2023-02-12T13:46:26.951Z,85.52
2023-02-12T13:51:58.598Z,85.95
2023-02-12T13:57:30.359Z,86.64
2023-02-12T14:03:02.137Z,86.61
2023-02-12T14:08:33.842Z,87.21
2023-02-12T14:14:05.516Z,87.36
2023-02-12T14:19:37.216Z,88.3
2023-02-12T14:25:08.828Z,88.16
2023-02-12T14:30:45.121Z,87.92
2023-02-12T14:36:16.699Z,88.05
2023-02-12T14:41:48.695Z,88.47
2023-02-12T14:47:20.386Z,87.76
2023-02-12T14:52:51.931Z,87.99
2023-02-12T14:58:23.668Z,87.84
2023-02-12T15:03:55.468Z,87.53
2023-02-12T15:09:27.913Z,86.92
2023-02-12T15:14:58.805Z,86.97
2023-02-12T15:20:30.569Z,86.59
2023-02-12T15:26:02.341Z,87.32
2023-02-12T15:31:38.678Z,87.1
2023-02-12T15:37:10.447Z,87.45
2023-02-12T15:42:42.094Z,87.63
2023-02-12T15:48:13.780Z,87.71
2023-02-12T15:53:45.678Z,87.64
2023-02-12T15:59:17.202Z,87.38
2023-02-12T16:04:49.015Z,87.43
2023-02-12T16:10:20.830Z,87.21
2023-02-12T16:15:52.423Z,87.98
2023-02-12T16:21:24.082Z,87.81
2023-02-12T16:26:56.362Z,87.0
2023-02-12T16:32:32.079Z,87.12
2023-02-12T16:38:03.819Z,86.91
2023-02-12T16:43:35.548Z,87.62
2023-02-12T16:49:07.191Z,87.1
2023-02-12T16:54:39.362Z,88.95
2023-02-12T17:00:10.710Z,89.7
2023-02-12T17:05:42.301Z,90.53
2023-02-12T17:11:13.969Z,91.17
2023-02-12T17:16:45.822Z,91.64
2023-02-12T17:22:17.394Z,91.63
2023-02-12T17:27:49.151Z,90.75
2023-02-12T17:33:27.266Z,92.0
2023-02-12T17:38:59.082Z,91.78
2023-02-12T17:44:30.765Z,90.96
2023-02-12T17:50:02.615Z,90.0
2023-02-12T17:55:34.609Z,89.0
2023-02-12T18:01:06.042Z,89.58
2023-02-12T18:06:37.825Z,89.4
2023-02-12T18:12:09.867Z,89.55
2023-02-12T18:17:41.211Z,89.56
2023-02-12T18:23:13.007Z,89.92
2023-02-12T18:28:44.670Z,89.62
2023-02-12T18:34:22.776Z,89.52
2023-02-12T18:39:54.816Z,89.81
2023-02-12T18:45:26.211Z,91.01
2023-02-12T18:50:58.704Z,91.11
2023-02-12T18:56:29.789Z,90.7
2023-02-12T19:02:01.658Z,91.32
2023-02-12T19:07:33.432Z,90.96
2023-02-12T19:13:04.968Z,90.54
2023-02-12T19:18:37.207Z,90.18
2023-02-12T19:24:09.119Z,91.11
2023-02-12T19:29:39.942Z,91.23
2023-02-12T19:35:16.092Z,92.23
2023-02-12T19:40:47.824Z,92.21
2023-02-12T19:46:19.601Z,93.5
2023-02-12T19:51:51.291Z,94.11
2023-02-12T19:57:23.100Z,94.36
2023-02-12T20:02:55.589Z,96.17
2023-02-12T20:08:26.624Z,95.64
2023-02-12T20:13:58.192Z,95.3
2023-02-12T20:19:30.022Z,95.46
2023-02-12T20:25:02.081Z,95.51
2023-02-12T20:30:33.279Z,95.07
2023-02-12T20:36:09.596Z,94.6
2023-02-12T20:41:41.280Z,94.44
2023-02-12T20:47:13.079Z,94.18
2023-02-12T20:52:44.835Z,94.99
2023-02-12T20:58:16.627Z,93.75
2023-02-12T21:03:48.193Z,93.38
2023-02-12T21:09:19.964Z,93.6
2023-02-12T21:14:52.204Z,94.48
2023-02-12T21:20:23.410Z,94.1
2023-02-12T21:25:55.223Z,94.21
2023-02-12T21:31:27.352Z,93.88
2023-02-12T21:37:05.266Z,93.88
2023-02-12T21:42:36.808Z,94.55
2023-02-12T21:48:08.720Z,95.97
2023-02-12T21:53:40.105Z,95.92
2023-02-12T21:59:12.086Z,95.69
2023-02-12T22:04:43.928Z,95.24
2023-02-12T22:10:15.599Z,96.7
2023-02-12T22:15:47.295Z,98.8
2023-02-12T22:21:19.033Z,100.0
2023-02-12T22:26:51.233Z,100.0
2023-02-12T22:32:22.696Z,100.0
2023-02-12T22:38:01.710Z,100.0
2023-02-12T22:43:32.310Z,100.0
2023-02-12T22:49:03.973Z,100.0
2023-02-12T22:54:35.781Z,100.0
2023-02-12T23:00:07.411Z,100.0
2023-02-12T23:05:39.235Z,100.0
2023-02-12T23:11:11.567Z,100.0
2023-02-12T23:16:43.821Z,99.46
2023-02-12T23:22:14.386Z,97.97
2023-02-12T23:27:46.062Z,98.74
2023-02-12T23:33:18.003Z,100.0
2023-02-12T23:38:55.985Z,98.88
2023-02-12T23:44:27.638Z,98.39
2023-02-12T23:49:59.447Z,98.31
2023-02-12T23:55:31.597Z,98.12
